createdAt,value
2022-12-09T00:00:03.168Z,1002.59
2022-12-09T00:01:03.203Z,1002.56
2022-12-09T00:02:03.057Z,1002.54
2022-12-09T00:03:03.419Z,1002.55
2022-12-09T00:04:03.094Z,1002.45
2022-12-09T00:05:03.332Z,1002.46
2022-12-09T00:06:02.934Z,1002.54
2022-12-09T00:07:03.126Z,1002.44
2022-12-09T00:08:02.927Z,1002.46
2022-12-09T00:09:03.153Z,1002.49
2022-12-09T00:10:02.839Z,1002.53
2022-12-09T00:11:03.066Z,1002.53
2022-12-09T00:12:02.818Z,1002.54
2022-12-09T00:13:02.873Z,1002.54
2022-12-09T00:14:02.851Z,1002.52
2022-12-09T00:15:02.932Z,1002.57
2022-12-09T00:16:03.102Z,1002.54
2022-12-09T00:17:03.202Z,1002.54
2022-12-09T00:18:03.050Z,1002.55
2022-12-09T00:19:02.978Z,1002.57
2022-12-09T00:20:02.988Z,1002.55
2022-12-09T00:21:02.753Z,1002.54
2022-12-09T00:22:02.714Z,1002.52
2022-12-09T00:23:02.852Z,1002.51
2022-12-09T00:24:02.926Z,1002.53
2022-12-09T00:25:02.846Z,1002.51
2022-12-09T00:26:02.821Z,1002.56
2022-12-09T00:27:02.764Z,1002.52
2022-12-09T00:28:02.898Z,1002.56
2022-12-09T00:29:02.687Z,1002.53
2022-12-09T00:30:02.908Z,1002.54
2022-12-09T00:31:03.025Z,1002.54
2022-12-09T00:32:03.024Z,1002.51
2022-12-09T00:33:02.735Z,1002.48
2022-12-09T00:34:02.598Z,1002.47
2022-12-09T00:35:02.614Z,1002.53
2022-12-09T00:36:02.609Z,1002.48
2022-12-09T00:37:02.876Z,1002.47
2022-12-09T00:38:02.537Z,1002.46
2022-12-09T00:39:03.646Z,1002.50
2022-12-09T00:40:02.520Z,1002.55
2022-12-09T00:41:23.570Z,1002.52
2022-12-09T00:42:02.625Z,1002.51
2022-12-09T00:44:12.327Z,1002.60
2022-12-09T00:45:12.145Z,1002.61
2022-12-09T00:46:12.463Z,1002.66
2022-12-09T00:47:12.085Z,1002.63
2022-12-09T00:48:12.234Z,1002.64
2022-12-09T00:49:12.137Z,1002.66
2022-12-09T00:50:12.283Z,1002.60
2022-12-09T00:51:12.025Z,1002.58
2022-12-09T00:52:12.031Z,1002.55
2022-12-09T00:53:11.937Z,1002.54
2022-12-09T00:54:12.194Z,1002.53
2022-12-09T00:55:11.976Z,1002.58
2022-12-09T00:56:12.011Z,1002.58
2022-12-09T00:57:11.894Z,1002.62
2022-12-09T00:58:11.992Z,1002.59
2022-12-09T00:59:12.047Z,1002.64
2022-12-09T01:00:12.440Z,1002.62
2022-12-09T01:01:11.958Z,1002.65
2022-12-09T01:02:12.221Z,1002.68
2022-12-09T01:03:12.077Z,1002.67
2022-12-09T01:04:12.165Z,1002.73
2022-12-09T01:05:11.935Z,1002.68
2022-12-09T01:06:11.934Z,1002.73
2022-12-09T01:07:11.790Z,1002.72
2022-12-09T01:08:11.906Z,1002.74
2022-12-09T01:09:11.863Z,1002.79
2022-12-09T01:10:12.098Z,1002.74
2022-12-09T01:11:11.764Z,1002.76
2022-12-09T01:12:11.754Z,1002.73
2022-12-09T01:13:12.002Z,1002.76
2022-12-09T01:14:11.766Z,1002.78
2022-12-09T01:15:11.713Z,1002.76
2022-12-09T01:16:11.810Z,1002.70
2022-12-09T01:17:11.792Z,1002.73
2022-12-09T01:18:11.716Z,1002.69
2022-12-09T01:19:11.933Z,1002.74
2022-12-09T01:20:12.377Z,1002.66
2022-12-09T01:21:11.657Z,1002.76
2022-12-09T01:22:11.754Z,1002.75
2022-12-09T01:23:11.624Z,1002.74
2022-12-09T01:24:11.722Z,1002.71
2022-12-09T01:25:11.783Z,1002.72
2022-12-09T01:26:12.045Z,1002.65
2022-12-09T01:27:11.679Z,1002.67
2022-12-09T01:28:11.988Z,1002.72
2022-12-09T01:29:11.577Z,1002.71
2022-12-09T01:30:12.019Z,1002.79
2022-12-09T01:31:11.605Z,1002.73
2022-12-09T01:32:11.831Z,1002.77
2022-12-09T01:33:11.932Z,1002.74
2022-12-09T01:34:11.598Z,1002.75
2022-12-09T01:35:11.749Z,1002.79
2022-12-09T01:36:11.874Z,1002.82
2022-12-09T01:37:11.772Z,1002.87
2022-12-09T01:38:11.837Z,1002.82
2022-12-09T01:39:11.496Z,1002.90
2022-12-09T01:40:12.144Z,1002.78
2022-12-09T01:41:11.695Z,1002.88
2022-12-09T01:43:21.440Z,1002.85
2022-12-09T01:44:20.936Z,1002.79
2022-12-09T01:45:21.339Z,1002.79
2022-12-09T01:46:21.066Z,1002.83
2022-12-09T01:47:21.375Z,1002.78
2022-12-09T01:48:20.955Z,1002.80
2022-12-09T01:49:20.930Z,1002.78
2022-12-09T01:50:20.903Z,1002.75
2022-12-09T01:51:21.006Z,1002.70
2022-12-09T01:52:20.910Z,1002.69
2022-12-09T01:53:20.840Z,1002.71
2022-12-09T01:54:20.921Z,1002.69
2022-12-09T01:55:41.851Z,1002.66
2022-12-09T01:56:20.816Z,1002.66
2022-12-09T01:57:20.883Z,1002.62
2022-12-09T01:58:20.854Z,1002.62
2022-12-09T01:59:20.782Z,1002.65
2022-12-09T02:00:20.903Z,1002.63
2022-12-09T02:01:20.973Z,1002.67
2022-12-09T02:02:20.824Z,1002.64
2022-12-09T02:03:21.027Z,1002.64
2022-12-09T02:04:20.820Z,1002.65
2022-12-09T02:05:20.828Z,1002.66
2022-12-09T02:06:20.840Z,1002.70
2022-12-09T02:07:21.101Z,1002.64
2022-12-09T02:08:20.696Z,1002.64
2022-12-09T02:09:20.884Z,1002.58
2022-12-09T02:10:20.648Z,1002.61
2022-12-09T02:11:20.712Z,1002.62
2022-12-09T02:12:20.638Z,1002.60
2022-12-09T02:13:20.675Z,1002.59
2022-12-09T02:14:20.610Z,1002.56
2022-12-09T02:15:20.706Z,1002.55
2022-12-09T02:16:20.897Z,1002.53
2022-12-09T02:17:20.775Z,1002.56
2022-12-09T02:18:20.776Z,1002.52
2022-12-09T02:19:20.928Z,1002.58
2022-12-09T02:20:20.617Z,1002.60
2022-12-09T02:21:20.824Z,1002.54
2022-12-09T02:22:20.525Z,1002.62
2022-12-09T02:23:20.594Z,1002.58
2022-12-09T02:24:20.725Z,1002.58
2022-12-09T02:25:20.569Z,1002.59
2022-12-09T02:26:20.799Z,1002.58
2022-12-09T02:27:20.709Z,1002.55
2022-12-09T02:28:20.621Z,1002.55
2022-12-09T02:29:20.474Z,1002.53
2022-12-09T02:30:20.550Z,1002.52
2022-12-09T02:31:20.591Z,1002.47
2022-12-09T02:32:20.734Z,1002.45
2022-12-09T02:33:20.642Z,1002.45
2022-12-09T02:34:20.406Z,1002.45
2022-12-09T02:35:22.579Z,1002.49
2022-12-09T02:36:20.444Z,1002.45
2022-12-09T02:37:20.787Z,1002.42
2022-12-09T02:38:20.397Z,1002.39
2022-12-09T02:39:22.507Z,1002.42
2022-12-09T02:40:20.660Z,1002.36
2022-12-09T02:41:22.522Z,1002.39
2022-12-09T02:42:20.545Z,1002.36
2022-12-09T02:43:22.345Z,1002.35
2022-12-09T02:44:20.614Z,1002.30
2022-12-09T02:45:20.394Z,1002.33
2022-12-09T02:46:20.683Z,1002.28
2022-12-09T02:47:20.513Z,1002.29
2022-12-09T02:48:20.584Z,1002.30
2022-12-09T02:49:20.310Z,1002.30
2022-12-09T02:50:20.256Z,1002.26
2022-12-09T02:51:20.319Z,1002.29
2022-12-09T02:52:20.434Z,1002.36
2022-12-09T02:53:20.269Z,1002.29
2022-12-09T02:54:20.501Z,1002.33
2022-12-09T02:55:20.517Z,1002.33
2022-12-09T02:56:20.175Z,1002.32
2022-12-09T02:57:20.522Z,1002.35
2022-12-09T02:58:20.140Z,1002.34
2022-12-09T02:59:20.223Z,1002.35
2022-12-09T03:00:20.236Z,1002.33
2022-12-09T03:01:20.379Z,1002.36
2022-12-09T03:02:20.389Z,1002.34
2022-12-09T03:03:20.435Z,1002.32
2022-12-09T03:04:20.230Z,1002.27
2022-12-09T03:05:20.214Z,1002.24
2022-12-09T03:06:20.110Z,1002.29
2022-12-09T03:07:20.116Z,1002.23
2022-12-09T03:08:20.077Z,1002.23
2022-12-09T03:09:20.321Z,1002.26
2022-12-09T03:10:20.180Z,1002.24
2022-12-09T03:11:20.145Z,1002.29
2022-12-09T03:12:20.086Z,1002.25
2022-12-09T03:13:20.074Z,1002.23
2022-12-09T03:14:20.165Z,1002.23
2022-12-09T03:15:19.980Z,1002.24
2022-12-09T03:16:20.087Z,1002.22
2022-12-09T03:17:20.313Z,1002.23
2022-12-09T03:18:20.132Z,1002.21
2022-12-09T03:19:20.003Z,1002.23
2022-12-09T03:20:20.198Z,1002.22
2022-12-09T03:21:19.917Z,1002.21
2022-12-09T03:22:20.205Z,1002.16
2022-12-09T03:23:20.966Z,1002.16
2022-12-09T03:24:20.113Z,1002.20
2022-12-09T03:25:20.078Z,1002.24
2022-12-09T03:26:20.140Z,1002.16
2022-12-09T03:27:23.081Z,1002.13
2022-12-09T03:28:19.958Z,1002.22
2022-12-09T03:29:20.022Z,1002.20
2022-12-09T03:30:19.906Z,1002.26
2022-12-09T03:31:20.954Z,1002.20
2022-12-09T03:32:19.850Z,1002.22
2022-12-09T03:33:19.918Z,1002.18
2022-12-09T03:34:20.021Z,1002.22
2022-12-09T03:35:20.050Z,1002.15
2022-12-09T03:36:19.733Z,1002.16
2022-12-09T03:37:19.769Z,1002.12
2022-12-09T03:38:19.712Z,1002.17
2022-12-09T03:39:19.833Z,1002.08
2022-12-09T03:40:20.236Z,1002.11
2022-12-09T03:41:19.759Z,1002.04
2022-12-09T03:42:19.820Z,1002.01
2022-12-09T03:43:19.837Z,1002.02
2022-12-09T03:44:19.653Z,1002.00
2022-12-09T03:45:19.756Z,1002.05
2022-12-09T03:46:19.685Z,1001.98
2022-12-09T03:47:19.876Z,1001.98
2022-12-09T03:48:19.700Z,1001.97
2022-12-09T03:49:19.711Z,1001.96
2022-12-09T03:50:19.900Z,1001.98
2022-12-09T03:51:19.893Z,1001.98
2022-12-09T03:52:19.589Z,1001.99
2022-12-09T03:53:19.649Z,1001.97
2022-12-09T03:54:19.542Z,1002.01
2022-12-09T03:55:19.932Z,1001.96
2022-12-09T03:56:19.712Z,1002.01
2022-12-09T03:57:19.980Z,1001.97
2022-12-09T03:58:19.859Z,1002.00
2022-12-09T03:59:19.775Z,1002.01
2022-12-09T04:00:19.581Z,1002.04
2022-12-09T04:01:19.968Z,1002.02
2022-12-09T04:02:19.893Z,1002.05
2022-12-09T04:03:19.731Z,1002.03
2022-12-09T04:04:19.522Z,1002.02
2022-12-09T04:05:19.751Z,1002.00
2022-12-09T04:06:19.603Z,1002.01
2022-12-09T04:07:19.510Z,1002.03
2022-12-09T04:08:19.439Z,1002.05
2022-12-09T04:09:19.898Z,1002.02
2022-12-09T04:10:19.487Z,1002.07
2022-12-09T04:11:20.473Z,1002.05
2022-12-09T04:12:19.532Z,1001.99
2022-12-09T04:13:19.351Z,1002.03
2022-12-09T04:14:19.378Z,1001.99
2022-12-09T04:15:20.784Z,1002.01
2022-12-09T04:16:19.466Z,1002.01
2022-12-09T04:17:19.659Z,1001.99
2022-12-09T04:18:19.313Z,1001.98
2022-12-09T04:19:19.508Z,1001.95
2022-12-09T04:20:19.502Z,1001.91
2022-12-09T04:21:19.307Z,1001.98
2022-12-09T04:22:19.271Z,1001.98
2022-12-09T04:23:19.538Z,1001.94
2022-12-09T04:24:19.551Z,1001.96
2022-12-09T04:25:19.412Z,1001.96
2022-12-09T04:26:19.302Z,1001.99
2022-12-09T04:27:19.650Z,1001.94
2022-12-09T04:28:19.490Z,1001.95
2022-12-09T04:29:19.260Z,1001.95
2022-12-09T04:30:19.244Z,1001.93
2022-12-09T04:31:19.326Z,1001.88
2022-12-09T04:32:19.588Z,1001.90
2022-12-09T04:33:19.190Z,1001.91
2022-12-09T04:34:19.260Z,1001.81
2022-12-09T04:35:19.211Z,1001.87
2022-12-09T04:36:19.114Z,1001.87
2022-12-09T04:37:19.170Z,1001.87
2022-12-09T04:38:19.166Z,1001.87
2022-12-09T04:39:19.467Z,1001.87
2022-12-09T04:40:23.642Z,1001.86
2022-12-09T04:41:20.056Z,1001.87
2022-12-09T04:42:19.078Z,1001.86
2022-12-09T04:43:19.189Z,1001.87
2022-12-09T04:44:19.365Z,1001.90
2022-12-09T04:45:19.063Z,1001.90
2022-12-09T04:46:19.481Z,1001.86
2022-12-09T04:47:19.182Z,1001.93
2022-12-09T04:48:19.130Z,1001.91
2022-12-09T04:49:19.285Z,1001.93
2022-12-09T04:50:18.942Z,1001.91
2022-12-09T04:51:19.001Z,1001.97
2022-12-09T04:52:19.202Z,1001.93
2022-12-09T04:53:19.015Z,1001.95
2022-12-09T04:54:18.898Z,1001.96
2022-12-09T04:55:19.261Z,1001.97
2022-12-09T04:56:19.127Z,1001.93
2022-12-09T04:57:19.026Z,1001.97
2022-12-09T04:58:18.958Z,1001.94
2022-12-09T04:59:18.969Z,1001.97
2022-12-09T05:00:19.082Z,1002.02
2022-12-09T05:01:24.793Z,1002.00
2022-12-09T05:02:19.960Z,1002.00
2022-12-09T05:03:21.109Z,1001.97
2022-12-09T05:04:19.077Z,1001.97
2022-12-09T05:05:19.984Z,1001.95
2022-12-09T05:06:19.183Z,1001.93
2022-12-09T05:07:18.961Z,1001.98
2022-12-09T05:08:18.965Z,1002.00
2022-12-09T05:09:19.023Z,1001.99
2022-12-09T05:10:18.888Z,1002.00
2022-12-09T05:11:18.944Z,1001.98
2022-12-09T05:12:18.949Z,1002.01
2022-12-09T05:13:18.847Z,1002.00
2022-12-09T05:14:18.687Z,1002.03
2022-12-09T05:15:19.044Z,1001.98
2022-12-09T05:16:19.167Z,1001.99
2022-12-09T05:17:18.956Z,1001.98
2022-12-09T05:18:19.036Z,1002.00
2022-12-09T05:19:18.860Z,1001.96
2022-12-09T05:20:18.857Z,1001.98
2022-12-09T05:21:18.795Z,1001.94
2022-12-09T05:22:18.949Z,1001.98
2022-12-09T05:23:18.715Z,1001.94
2022-12-09T05:24:18.997Z,1001.98
2022-12-09T05:25:18.678Z,1002.02
2022-12-09T05:26:18.750Z,1001.98
2022-12-09T05:27:19.052Z,1001.98
2022-12-09T05:28:18.974Z,1001.97
2022-12-09T05:29:22.717Z,1001.97
2022-12-09T05:30:19.651Z,1001.96
2022-12-09T05:31:18.973Z,1001.99
2022-12-09T05:32:18.777Z,1001.92
2022-12-09T05:33:19.037Z,1001.97
2022-12-09T05:34:18.969Z,1001.97
2022-12-09T05:35:18.703Z,1001.96
2022-12-09T05:36:18.869Z,1002.01
2022-12-09T05:37:18.831Z,1001.99
2022-12-09T05:38:18.491Z,1001.93
2022-12-09T05:39:18.765Z,1002.00
2022-12-09T05:40:18.522Z,1001.96
2022-12-09T05:41:18.570Z,1002.02
2022-12-09T05:42:18.431Z,1001.97
2022-12-09T05:43:18.885Z,1001.96
2022-12-09T05:44:18.381Z,1002.04
2022-12-09T05:45:18.576Z,1001.97
2022-12-09T05:46:18.577Z,1002.00
2022-12-09T05:47:18.477Z,1002.00
2022-12-09T05:48:18.666Z,1002.01
2022-12-09T05:49:18.778Z,1002.02
2022-12-09T05:50:18.743Z,1002.02
2022-12-09T05:51:19.466Z,1002.03
2022-12-09T05:52:18.362Z,1001.98
2022-12-09T05:53:18.373Z,1002.04
2022-12-09T05:54:18.670Z,1002.03
2022-12-09T05:55:18.453Z,1002.03
2022-12-09T05:56:18.827Z,1002.05
2022-12-09T05:57:18.493Z,1002.05
2022-12-09T05:58:18.370Z,1002.08
2022-12-09T05:59:18.419Z,1002.01
2022-12-09T06:00:18.255Z,1002.01
2022-12-09T06:01:18.631Z,1002.03
2022-12-09T06:02:18.367Z,1002.09
2022-12-09T06:03:18.858Z,1002.05
2022-12-09T06:04:18.669Z,1002.03
2022-12-09T06:05:18.454Z,1002.02
2022-12-09T06:06:18.677Z,1001.99
2022-12-09T06:07:18.678Z,1002.04
2022-12-09T06:08:18.236Z,1001.97
2022-12-09T06:09:18.332Z,1002.02
2022-12-09T06:10:18.883Z,1001.94
2022-12-09T06:11:18.286Z,1001.93
2022-12-09T06:12:18.207Z,1001.93
2022-12-09T06:13:18.313Z,1001.96
2022-12-09T06:14:18.048Z,1001.98
2022-12-09T06:15:21.674Z,1001.94
2022-12-09T06:16:18.212Z,1001.95
2022-12-09T06:17:18.170Z,1001.93
2022-12-09T06:18:18.161Z,1001.91
2022-12-09T06:19:18.316Z,1001.89
2022-12-09T06:20:18.273Z,1001.91
2022-12-09T06:21:18.383Z,1001.89
2022-12-09T06:22:18.001Z,1001.88
2022-12-09T06:23:18.328Z,1001.88
2022-12-09T06:24:18.298Z,1001.89
2022-12-09T06:25:18.012Z,1001.91
2022-12-09T06:26:17.926Z,1001.90
2022-12-09T06:27:18.340Z,1001.89
2022-12-09T06:28:17.923Z,1001.92
2022-12-09T06:29:18.048Z,1001.87
2022-12-09T06:30:17.988Z,1001.88
2022-12-09T06:31:18.212Z,1001.85
2022-12-09T06:32:18.086Z,1001.85
2022-12-09T06:33:45.914Z,1001.84
2022-12-09T06:34:18.938Z,1001.82
2022-12-09T06:35:20.436Z,1001.80
2022-12-09T06:36:18.020Z,1001.76
2022-12-09T06:37:18.918Z,1001.77
2022-12-09T06:38:18.022Z,1001.77
2022-12-09T06:39:17.867Z,1001.81
2022-12-09T06:40:18.091Z,1001.87
2022-12-09T06:41:17.946Z,1001.76
2022-12-09T06:42:17.912Z,1001.77
2022-12-09T06:43:17.954Z,1001.76
2022-12-09T06:44:23.451Z,1001.83
2022-12-09T06:45:18.801Z,1001.82
2022-12-09T06:46:17.899Z,1001.80
2022-12-09T06:47:17.821Z,1001.80
2022-12-09T06:48:18.057Z,1001.75
2022-12-09T06:49:18.262Z,1001.79
2022-12-09T06:50:17.841Z,1001.78
2022-12-09T06:51:17.854Z,1001.74
2022-12-09T06:52:17.827Z,1001.71
2022-12-09T06:53:17.808Z,1001.79
2022-12-09T06:54:18.053Z,1001.79
2022-12-09T06:55:18.137Z,1001.77
2022-12-09T06:56:17.782Z,1001.76
2022-12-09T06:57:17.815Z,1001.80
2022-12-09T06:58:18.075Z,1001.76
2022-12-09T06:59:17.781Z,1001.76
2022-12-09T07:00:17.767Z,1001.77
2022-12-09T07:01:18.331Z,1001.76
2022-12-09T07:02:17.875Z,1001.76
2022-12-09T07:03:18.049Z,1001.82
2022-12-09T07:04:17.811Z,1001.83
2022-12-09T07:05:18.059Z,1001.83
2022-12-09T07:06:17.982Z,1001.80
2022-12-09T07:07:17.767Z,1001.83
2022-12-09T07:08:17.612Z,1001.89
2022-12-09T07:09:17.812Z,1001.80
2022-12-09T07:10:17.767Z,1001.84
2022-12-09T07:11:17.732Z,1001.83
2022-12-09T07:12:17.725Z,1001.88
2022-12-09T07:13:17.759Z,1001.86
2022-12-09T07:14:17.530Z,1001.82
2022-12-09T07:15:17.626Z,1001.91
2022-12-09T07:16:17.868Z,1001.93
2022-12-09T07:17:17.786Z,1001.88
2022-12-09T07:18:18.523Z,1001.90
2022-12-09T07:19:18.061Z,1001.92
2022-12-09T07:20:17.874Z,1001.94
2022-12-09T07:21:38.483Z,1001.93
2022-12-09T07:22:17.412Z,1001.94
2022-12-09T07:23:17.818Z,1001.93
2022-12-09T07:24:18.504Z,1001.98
2022-12-09T07:25:17.583Z,1001.93
2022-12-09T07:26:17.658Z,1001.96
2022-12-09T07:27:19.724Z,1001.98
2022-12-09T07:28:17.388Z,1001.94
2022-12-09T07:29:17.242Z,1002.00
2022-12-09T07:30:18.355Z,1001.95
2022-12-09T07:31:17.319Z,1002.03
2022-12-09T07:32:17.805Z,1002.03
2022-12-09T07:33:17.380Z,1002.00
2022-12-09T07:34:17.625Z,1002.00
2022-12-09T07:35:17.984Z,1001.96
2022-12-09T07:36:21.023Z,1001.97
2022-12-09T07:37:17.592Z,1001.95
2022-12-09T07:38:17.664Z,1001.98
2022-12-09T07:39:17.251Z,1001.96
2022-12-09T07:40:17.356Z,1001.95
2022-12-09T07:41:17.569Z,1002.02
2022-12-09T07:42:17.434Z,1002.02
2022-12-09T07:43:17.462Z,1002.02
2022-12-09T07:44:17.417Z,1002.00
2022-12-09T07:45:17.172Z,1002.07
2022-12-09T07:46:17.510Z,1002.07
2022-12-09T07:47:17.299Z,1002.06
2022-12-09T07:48:17.738Z,1002.05
2022-12-09T07:49:17.497Z,1002.09
2022-12-09T07:50:17.211Z,1002.09
2022-12-09T07:51:17.221Z,1002.06
2022-12-09T07:52:17.471Z,1002.08
2022-12-09T07:53:17.079Z,1002.02
2022-12-09T07:54:17.128Z,1002.03
2022-12-09T07:55:17.274Z,1002.04
2022-12-09T07:56:17.104Z,1002.03
2022-12-09T07:57:17.098Z,1001.99
2022-12-09T07:58:17.086Z,1001.98
2022-12-09T07:59:17.132Z,1001.95
2022-12-09T08:00:17.156Z,1002.00
2022-12-09T08:01:17.316Z,1002.06
2022-12-09T08:02:17.083Z,1002.07
2022-12-09T08:03:17.016Z,1002.08
2022-12-09T08:04:17.208Z,1002.09
2022-12-09T08:05:17.631Z,1002.00
2022-12-09T08:06:38.372Z,1002.08
2022-12-09T08:07:17.473Z,1002.09
2022-12-09T08:08:38.495Z,1002.07
2022-12-09T08:09:17.510Z,1002.05
2022-12-09T08:10:17.263Z,1002.10
2022-12-09T08:11:17.198Z,1002.04
2022-12-09T08:12:17.146Z,1002.04
2022-12-09T08:13:17.158Z,1001.98
2022-12-09T08:14:16.891Z,1002.08
2022-12-09T08:15:17.146Z,1002.01
2022-12-09T08:16:16.945Z,1001.99
2022-12-09T08:17:17.005Z,1002.00
2022-12-09T08:18:17.247Z,1002.03
2022-12-09T08:19:17.074Z,1001.98
2022-12-09T08:20:17.324Z,1002.06
2022-12-09T08:21:16.982Z,1002.06
2022-12-09T08:22:16.767Z,1002.07
2022-12-09T08:23:16.768Z,1002.08
2022-12-09T08:24:17.145Z,1002.08
2022-12-09T08:25:16.934Z,1002.11
2022-12-09T08:26:16.952Z,1002.05
2022-12-09T08:27:16.950Z,1002.05
2022-12-09T08:28:17.148Z,1002.01
2022-12-09T08:29:16.913Z,1002.00
2022-12-09T08:30:17.043Z,1002.00
2022-12-09T08:31:17.102Z,1002.01
2022-12-09T08:32:17.108Z,1001.97
2022-12-09T08:33:16.696Z,1002.00
2022-12-09T08:34:16.923Z,1002.04
2022-12-09T08:35:16.930Z,1002.03
2022-12-09T08:36:16.636Z,1002.05
2022-12-09T08:37:16.980Z,1002.00
2022-12-09T08:38:16.739Z,1002.06
2022-12-09T08:39:17.011Z,1002.11
2022-12-09T08:40:16.858Z,1002.18
2022-12-09T08:41:16.877Z,1002.18
2022-12-09T08:42:16.534Z,1002.20
2022-12-09T08:43:16.568Z,1002.17
2022-12-09T08:44:17.073Z,1002.18
2022-12-09T08:45:16.896Z,1002.21
2022-12-09T08:46:16.615Z,1002.19
2022-12-09T08:47:16.561Z,1002.23
2022-12-09T08:48:16.795Z,1002.20
2022-12-09T08:49:16.595Z,1002.21
2022-12-09T08:50:16.849Z,1002.18
2022-12-09T08:51:16.640Z,1002.18
2022-12-09T08:52:16.378Z,1002.18
2022-12-09T08:53:16.666Z,1002.21
2022-12-09T08:54:16.639Z,1002.22
2022-12-09T08:55:17.629Z,1002.18
2022-12-09T08:56:16.325Z,1002.13
2022-12-09T08:57:17.421Z,1002.15
2022-12-09T08:58:16.592Z,1002.12
2022-12-09T08:59:16.424Z,1002.15
2022-12-09T09:00:16.396Z,1002.19
2022-12-09T09:01:16.568Z,1002.17
2022-12-09T09:02:16.456Z,1002.18
2022-12-09T09:03:17.472Z,1002.19
2022-12-09T09:04:16.515Z,1002.18
2022-12-09T09:05:16.551Z,1002.19
2022-12-09T09:06:17.244Z,1002.19
2022-12-09T09:07:16.836Z,1002.21
2022-12-09T09:08:16.628Z,1002.20
2022-12-09T09:09:16.434Z,1002.27
2022-12-09T09:10:16.878Z,1002.22
2022-12-09T09:11:16.314Z,1002.26
2022-12-09T09:12:16.261Z,1002.31
2022-12-09T09:13:16.398Z,1002.34
2022-12-09T09:14:16.644Z,1002.32
2022-12-09T09:15:17.113Z,1002.29
2022-12-09T09:16:16.712Z,1002.34
2022-12-09T09:17:16.296Z,1002.28
2022-12-09T09:18:16.200Z,1002.31
2022-12-09T09:19:16.659Z,1002.34
2022-12-09T09:20:16.770Z,1002.37
2022-12-09T09:21:16.269Z,1002.36
2022-12-09T09:22:16.409Z,1002.40
2022-12-09T09:23:16.452Z,1002.36
2022-12-09T09:24:16.153Z,1002.38
2022-12-09T09:25:16.357Z,1002.37
2022-12-09T09:26:16.007Z,1002.37
2022-12-09T09:27:16.088Z,1002.36
2022-12-09T09:28:16.230Z,1002.36
2022-12-09T09:29:16.132Z,1002.35
2022-12-09T09:30:16.189Z,1002.30
2022-12-09T09:31:16.149Z,1002.33
2022-12-09T09:32:16.408Z,1002.33
2022-12-09T09:33:16.160Z,1002.35
2022-12-09T09:34:16.395Z,1002.37
2022-12-09T09:35:16.416Z,1002.34
2022-12-09T09:36:16.286Z,1002.30
2022-12-09T09:37:15.972Z,1002.34
2022-12-09T09:38:15.864Z,1002.33
2022-12-09T09:39:16.083Z,1002.42
2022-12-09T09:40:16.305Z,1002.42
2022-12-09T09:41:18.108Z,1002.39
2022-12-09T09:42:15.945Z,1002.41
2022-12-09T09:44:25.597Z,1002.42
2022-12-09T09:45:25.026Z,1002.41
2022-12-09T09:46:25.055Z,1002.44
2022-12-09T09:47:25.077Z,1002.35
2022-12-09T09:48:25.302Z,1002.40
2022-12-09T09:49:25.390Z,1002.39
2022-12-09T09:50:25.409Z,1002.40
2022-12-09T09:51:24.835Z,1002.34
2022-12-09T09:52:25.380Z,1002.34
2022-12-09T09:53:24.841Z,1002.33
2022-12-09T09:54:24.940Z,1002.34
2022-12-09T09:55:25.142Z,1002.37
2022-12-09T09:57:34.653Z,1002.34
2022-12-09T09:58:34.492Z,1002.32
2022-12-09T09:59:34.368Z,1002.30
2022-12-09T10:00:34.375Z,1002.31
2022-12-09T10:01:34.783Z,1002.22
2022-12-09T10:02:34.701Z,1002.31
2022-12-09T10:03:34.917Z,1002.23
2022-12-09T10:04:34.631Z,1002.24
2022-12-09T10:05:35.737Z,1002.22
2022-12-09T10:06:34.505Z,1002.22
2022-12-09T10:07:35.516Z,1002.21
2022-12-09T10:08:34.787Z,1002.18
2022-12-09T10:09:34.421Z,1002.19
2022-12-09T10:10:34.442Z,1002.20
2022-12-09T10:11:34.549Z,1002.22
2022-12-09T10:12:34.914Z,1002.23
2022-12-09T10:13:34.461Z,1002.27
2022-12-09T10:14:34.352Z,1002.20
2022-12-09T10:15:34.662Z,1002.16
2022-12-09T10:16:34.756Z,1002.19
2022-12-09T10:17:34.471Z,1002.20
2022-12-09T10:18:34.480Z,1002.19
2022-12-09T10:19:34.530Z,1002.21
2022-12-09T10:20:34.209Z,1002.21
2022-12-09T10:21:34.177Z,1002.15
2022-12-09T10:22:34.507Z,1002.16
2022-12-09T10:23:34.289Z,1002.15
2022-12-09T10:24:39.156Z,1002.19
2022-12-09T10:25:35.549Z,1002.25
2022-12-09T10:26:34.464Z,1002.22
2022-12-09T10:27:34.235Z,1002.22
2022-12-09T10:28:34.023Z,1002.22
2022-12-09T10:29:34.273Z,1002.21
2022-12-09T10:30:41.701Z,1002.24
2022-12-09T10:31:35.142Z,1002.23
2022-12-09T10:32:34.590Z,1002.24
2022-12-09T10:33:34.352Z,1002.23
2022-12-09T10:34:34.222Z,1002.23
2022-12-09T10:35:34.042Z,1002.24
2022-12-09T10:36:35.990Z,1002.19
2022-12-09T10:37:34.036Z,1002.22
2022-12-09T10:38:34.227Z,1002.22
2022-12-09T10:39:34.233Z,1002.21
2022-12-09T10:40:34.312Z,1002.24
2022-12-09T10:41:34.324Z,1002.24
2022-12-09T10:42:35.410Z,1002.21
2022-12-09T10:43:33.847Z,1002.28
2022-12-09T10:44:34.119Z,1002.22
2022-12-09T10:46:07.911Z,1002.20
2022-12-09T10:46:35.003Z,1002.25
2022-12-09T10:47:34.097Z,1002.18
2022-12-09T10:48:34.345Z,1002.24
2022-12-09T10:49:34.118Z,1002.23
2022-12-09T10:50:34.224Z,1002.21
2022-12-09T10:51:34.908Z,1002.21
2022-12-09T10:52:33.731Z,1002.19
2022-12-09T10:54:43.544Z,1002.23
2022-12-09T10:55:43.443Z,1002.21
2022-12-09T10:56:43.747Z,1002.20
2022-12-09T10:57:43.326Z,1002.22
2022-12-09T10:59:04.300Z,1002.16
2022-12-09T10:59:43.241Z,1002.19
2022-12-09T11:00:44.257Z,1002.22
2022-12-09T11:01:43.193Z,1002.15
2022-12-09T11:02:43.683Z,1002.23
2022-12-09T11:03:43.408Z,1002.19
2022-12-09T11:04:43.496Z,1002.16
2022-12-09T11:05:43.272Z,1002.14
2022-12-09T11:06:43.445Z,1002.15
2022-12-09T11:07:43.638Z,1002.09
2022-12-09T11:08:43.588Z,1002.06
2022-12-09T11:09:43.673Z,1002.13
2022-12-09T11:10:43.323Z,1002.14
2022-12-09T11:11:43.114Z,1002.12
2022-12-09T11:12:43.245Z,1002.07
2022-12-09T11:13:43.440Z,1002.09
2022-12-09T11:14:43.407Z,1002.05
2022-12-09T11:15:43.595Z,1002.07
2022-12-09T11:16:43.347Z,1002.05
2022-12-09T11:17:43.138Z,1002.05
2022-12-09T11:18:43.448Z,1002.07
2022-12-09T11:19:42.968Z,1002.01
2022-12-09T11:20:43.191Z,1002.06
2022-12-09T11:21:43.028Z,1002.00
2022-12-09T11:22:43.314Z,1002.04
2022-12-09T11:23:43.265Z,1002.00
2022-12-09T11:24:43.305Z,1001.94
2022-12-09T11:25:43.257Z,1001.92
2022-12-09T11:26:43.302Z,1001.90
2022-12-09T11:27:42.849Z,1001.93
2022-12-09T11:28:43.337Z,1001.93
2022-12-09T11:29:43.009Z,1001.94
2022-12-09T11:31:04.857Z,1001.92
2022-12-09T11:31:44.490Z,1001.87
2022-12-09T11:32:43.202Z,1001.82
2022-12-09T11:33:43.299Z,1001.90
2022-12-09T11:34:43.014Z,1001.84
2022-12-09T11:35:43.009Z,1001.89
2022-12-09T11:36:44.325Z,1001.87
2022-12-09T11:37:42.801Z,1001.91
2022-12-09T11:38:42.694Z,1001.91
2022-12-09T11:39:42.759Z,1001.91
2022-12-09T11:40:42.676Z,1001.91
2022-12-09T11:41:42.728Z,1001.88
2022-12-09T11:42:42.670Z,1001.90
2022-12-09T11:43:42.736Z,1001.91
2022-12-09T11:44:42.649Z,1001.90
2022-12-09T11:45:44.698Z,1001.90
2022-12-09T11:46:42.637Z,1002.03
2022-12-09T11:48:36.196Z,1001.95
2022-12-09T11:48:44.014Z,1001.96
2022-12-09T11:49:42.658Z,1002.01
2022-12-09T11:50:42.757Z,1001.94
2022-12-09T11:51:42.569Z,1001.97
2022-12-09T11:52:42.593Z,1001.93
2022-12-09T11:53:42.532Z,1001.82
2022-12-09T11:54:42.555Z,1001.75
2022-12-09T11:55:42.510Z,1001.70
2022-12-09T11:56:42.519Z,1001.76
2022-12-09T11:57:42.489Z,1001.73
2022-12-09T11:58:42.550Z,1001.74
2022-12-09T11:59:42.484Z,1001.77
2022-12-09T12:00:42.548Z,1001.73
2022-12-09T12:01:42.528Z,1001.70
2022-12-09T12:02:42.537Z,1001.71
2022-12-09T12:03:42.429Z,1001.74
2022-12-09T12:04:42.521Z,1001.77
2022-12-09T12:05:42.401Z,1001.81
2022-12-09T12:06:42.487Z,1001.81
2022-12-09T12:07:42.441Z,1001.83
2022-12-09T12:08:42.488Z,1001.80
2022-12-09T12:09:42.372Z,1001.79
2022-12-09T12:10:42.411Z,1001.81